Hovedside
METAR-TAF:

METAR-TAF

Lufthavner :

Longyearbyen, Norge

Svalbard lufthavn

breddegrad: 78-15N, lengdegrad: 015-28E, høyde over havet: 2 m

Gjeldene værobservasjon

Denne rapporten ble laget for 35 minutter siden, klokken 13:50 UTC
Vind 18 kt fra Øst-sørøst
Temperatur -5°C
Luftfuktighet 79%
Trykk 1036 hPa
Sikt 10 km eller mer
Få skyer i en høyde av 1500 ft
Brutte skyer i en høyde av 2800 ft
lett snø

METAR: ENSB 221350Z 11018KT 9999 -SN FEW015 BKN028 M05/M08 Q1036 RMK WIND 1400FT 09025KT

Tid: 15:25 (14:25 UTC)

Varsel

Varsel gyldig fra 22. klokken 12 UTC til 23. klokken 12 UTC
Vind 12 kt fra Øst-sørøst
Sikt 10 km eller mer
Få skyer i en høyde av 1500 ft
Spredte skyer i en høyde av 3000 ft
Midlertidig
fra 22. klokken 12 UTC til 22. klokken 18 UTC
Sikt: 4000 m
i en høyde av 1400 ft
lette snøbyger

TAF: ENSB 2212/2312 12012KT 9999 FEW015 SCT030 TEMPO 2212/2218 4000 -SHSN VV014

Værobservasjoner og værvarsel for over 4000 flyplasser (METAR- og TAF-rapporter).

Tilgjengelige stasjoner er representert av de røde og gule prikkene på kartet.

Hold musepekeren over prikken for å se navnet på stasjonen.

Klikk så for å se værobservasjoner og -varsler.

For å forandre kartet kan du klikke på den grønne knappen med svart kryss for å zoome inn, på den grønne knappen med strek for å zoome ut, eller på de grønne pilene for å se tilstøtende kart.


METAR-TAF: